sensor_id;sensor_type;location;lat;lon;timestamp;P1;durP1;ratioP1;P2;durP2;ratioP2
20986;SDS011;10652;50.306;8.570;2022-10-17T00:03:35;3.83;;;2.05;;
20986;SDS011;10652;50.306;8.570;2022-10-17T00:07:38;4.85;;;2.13;;
20986;SDS011;10652;50.306;8.570;2022-10-17T00:11:40;6.25;;;1.83;;
20986;SDS011;10652;50.306;8.570;2022-10-17T00:15:43;4.90;;;1.80;;
20986;SDS011;10652;50.306;8.570;2022-10-17T00:19:45;2.53;;;1.88;;
20986;SDS011;10652;50.306;8.570;2022-10-17T00:23:47;4.32;;;1.60;;
20986;SDS011;10652;50.306;8.570;2022-10-17T00:27:49;5.72;;;1.85;;
20986;SDS011;10652;50.306;8.570;2022-10-17T00:31:55;6.03;;;1.83;;
20986;SDS011;10652;50.306;8.570;2022-10-17T00:36:32;3.72;;;2.05;;
20986;SDS011;10652;50.306;8.570;2022-10-17T00:40:27;2.47;;;1.90;;
20986;SDS011;10652;50.306;8.570;2022-10-17T00:48:31;3.55;;;1.80;;
20986;SDS011;10652;50.306;8.570;2022-10-17T00:52:33;2.50;;;1.98;;
20986;SDS011;10652;50.306;8.570;2022-10-17T00:56:36;5.60;;;2.83;;
20986;SDS011;10652;50.306;8.570;2022-10-17T01:00:41;4.72;;;2.80;;
20986;SDS011;10652;50.306;8.570;2022-10-17T01:04:45;5.70;;;2.30;;
20986;SDS011;10652;50.306;8.570;2022-10-17T01:08:49;4.45;;;1.90;;
20986;SDS011;10652;50.306;8.570;2022-10-17T01:21:29;3.47;;;2.03;;
20986;SDS011;10652;50.306;8.570;2022-10-17T01:34:30;4.80;;;1.98;;
20986;SDS011;10652;50.306;8.570;2022-10-17T01:38:49;3.00;;;1.77;;
20986;SDS011;10652;50.306;8.570;2022-10-17T01:42:58;3.85;;;1.90;;
20986;SDS011;10652;50.306;8.570;2022-10-17T01:47:21;3.22;;;2.20;;
20986;SDS011;10652;50.306;8.570;2022-10-17T01:51:29;4.20;;;1.90;;
20986;SDS011;10652;50.306;8.570;2022-10-17T01:56:00;7.03;;;2.17;;
20986;SDS011;10652;50.306;8.570;2022-10-17T02:00:07;3.95;;;2.00;;
20986;SDS011;10652;50.306;8.570;2022-10-17T02:04:14;8.18;;;2.42;;
20986;SDS011;10652;50.306;8.570;2022-10-17T02:08:24;3.03;;;1.90;;
20986;SDS011;10652;50.306;8.570;2022-10-17T02:12:40;3.45;;;2.25;;
20986;SDS011;10652;50.306;8.570;2022-10-17T02:16:54;4.43;;;2.20;;
20986;SDS011;10652;50.306;8.570;2022-10-17T02:21:12;2.35;;;1.90;;
20986;SDS011;10652;50.306;8.570;2022-10-17T02:25:32;2.88;;;1.92;;
20986;SDS011;10652;50.306;8.570;2022-10-17T02:29:59;6.50;;;2.10;;
20986;SDS011;10652;50.306;8.570;2022-10-17T02:34:28;4.60;;;2.13;;
20986;SDS011;10652;50.306;8.570;2022-10-17T02:38:35;4.40;;;2.00;;
20986;SDS011;10652;50.306;8.570;2022-10-17T02:42:39;3.88;;;2.00;;
20986;SDS011;10652;50.306;8.570;2022-10-17T02:46:46;5.70;;;2.10;;
20986;SDS011;10652;50.306;8.570;2022-10-17T02:51:04;5.13;;;1.92;;
20986;SDS011;10652;50.306;8.570;2022-10-17T02:55:17;3.67;;;2.08;;
20986;SDS011;10652;50.306;8.570;2022-10-17T02:59:24;3.65;;;2.08;;
20986;SDS011;10652;50.306;8.570;2022-10-17T03:03:30;4.30;;;2.13;;
20986;SDS011;10652;50.306;8.570;2022-10-17T03:07:35;5.47;;;2.40;;
20986;SDS011;10652;50.306;8.570;2022-10-17T03:11:37;3.97;;;2.30;;
20986;SDS011;10652;50.306;8.570;2022-10-17T03:15:41;5.40;;;2.22;;
20986;SDS011;10652;50.306;8.570;2022-10-17T03:19:43;3.65;;;1.90;;
20986;SDS011;10652;50.306;8.570;2022-10-17T03:23:45;3.85;;;2.10;;
20986;SDS011;10652;50.306;8.570;2022-10-17T03:27:48;5.78;;;2.20;;
20986;SDS011;10652;50.306;8.570;2022-10-17T03:31:50;7.93;;;1.98;;
20986;SDS011;10652;50.306;8.570;2022-10-17T03:35:53;5.72;;;2.35;;
20986;SDS011;10652;50.306;8.570;2022-10-17T03:39:56;3.83;;;2.13;;
20986;SDS011;10652;50.306;8.570;2022-10-17T03:43:59;6.35;;;2.40;;
20986;SDS011;10652;50.306;8.570;2022-10-17T03:48:01;3.97;;;2.17;;
20986;SDS011;10652;50.306;8.570;2022-10-17T03:52:04;4.72;;;2.15;;
20986;SDS011;10652;50.306;8.570;2022-10-17T03:56:10;5.65;;;2.30;;
20986;SDS011;10652;50.306;8.570;2022-10-17T04:00:17;5.63;;;2.25;;
20986;SDS011;10652;50.306;8.570;2022-10-17T04:04:28;6.65;;;2.15;;
20986;SDS011;10652;50.306;8.570;2022-10-17T04:08:33;4.55;;;2.10;;
20986;SDS011;10652;50.306;8.570;2022-10-17T04:12:42;4.05;;;2.30;;
20986;SDS011;10652;50.306;8.570;2022-10-17T04:16:44;3.10;;;2.15;;
20986;SDS011;10652;50.306;8.570;2022-10-17T04:20:51;6.00;;;2.15;;
20986;SDS011;10652;50.306;8.570;2022-10-17T04:24:53;7.15;;;2.35;;
20986;SDS011;10652;50.306;8.570;2022-10-17T04:29:07;3.95;;;2.40;;
20986;SDS011;10652;50.306;8.570;2022-10-17T04:33:09;5.15;;;2.30;;
20986;SDS011;10652;50.306;8.570;2022-10-17T04:37:11;4.20;;;2.10;;
20986;SDS011;10652;50.306;8.570;2022-10-17T04:41:14;5.13;;;2.28;;
20986;SDS011;10652;50.306;8.570;2022-10-17T04:45:17;2.70;;;1.90;;
20986;SDS011;10652;50.306;8.570;2022-10-17T04:49:21;5.05;;;2.50;;
20986;SDS011;10652;50.306;8.570;2022-10-17T04:53:27;4.28;;;2.28;;
20986;SDS011;10652;50.306;8.570;2022-10-17T04:57:34;6.03;;;2.38;;
20986;SDS011;10652;50.306;8.570;2022-10-17T05:01:48;5.28;;;1.92;;
20986;SDS011;10652;50.306;8.570;2022-10-17T05:05:52;4.15;;;2.45;;
20986;SDS011;10652;50.306;8.570;2022-10-17T05:09:54;4.03;;;2.50;;
20986;SDS011;10652;50.306;8.570;2022-10-17T05:13:58;2.83;;;2.22;;
20986;SDS011;10652;50.306;8.570;2022-10-17T05:18:04;4.88;;;2.42;;
20986;SDS011;10652;50.306;8.570;2022-10-17T05:22:08;4.15;;;2.67;;
20986;SDS011;10652;50.306;8.570;2022-10-17T05:26:10;4.50;;;2.80;;
20986;SDS011;10652;50.306;8.570;2022-10-17T05:30:13;6.05;;;2.75;;
20986;SDS011;10652;50.306;8.570;2022-10-17T05:34:15;2.85;;;2.50;;
20986;SDS011;10652;50.306;8.570;2022-10-17T05:38:19;6.88;;;2.78;;
20986;SDS011;10652;50.306;8.570;2022-10-17T05:42:22;5.05;;;3.08;;
20986;SDS011;10652;50.306;8.570;2022-10-17T05:46:25;7.70;;;3.10;;
20986;SDS011;10652;50.306;8.570;2022-10-17T05:50:27;6.50;;;2.80;;
20986;SDS011;10652;50.306;8.570;2022-10-17T05:54:37;5.55;;;2.80;;
20986;SDS011;10652;50.306;8.570;2022-10-17T05:58:40;3.90;;;2.70;;
20986;SDS011;10652;50.306;8.570;2022-10-17T06:03:03;5.70;;;2.92;;
20986;SDS011;10652;50.306;8.570;2022-10-17T06:07:05;5.72;;;2.58;;
20986;SDS011;10652;50.306;8.570;2022-10-17T06:11:08;6.93;;;2.90;;
20986;SDS011;10652;50.306;8.570;2022-10-17T06:15:12;4.80;;;2.40;;
20986;SDS011;10652;50.306;8.570;2022-10-17T06:19:17;5.60;;;2.78;;
20986;SDS011;10652;50.306;8.570;2022-10-17T06:23:20;3.90;;;2.50;;
20986;SDS011;10652;50.306;8.570;2022-10-17T06:27:37;6.38;;;2.70;;
20986;SDS011;10652;50.306;8.570;2022-10-17T06:31:40;4.68;;;2.75;;
20986;SDS011;10652;50.306;8.570;2022-10-17T06:35:42;4.80;;;2.38;;
20986;SDS011;10652;50.306;8.570;2022-10-17T06:39:44;5.68;;;2.40;;
20986;SDS011;10652;50.306;8.570;2022-10-17T06:43:50;6.50;;;2.50;;
20986;SDS011;10652;50.306;8.570;2022-10-17T06:48:18;7.20;;;2.58;;
20986;SDS011;10652;50.306;8.570;2022-10-17T06:52:41;2.60;;;2.40;;
20986;SDS011;10652;50.306;8.570;2022-10-17T06:57:01;5.05;;;2.53;;
20986;SDS011;10652;50.306;8.570;2022-10-17T07:05:34;4.78;;;2.42;;
20986;SDS011;10652;50.306;8.570;2022-10-17T07:09:36;5.95;;;2.20;;
20986;SDS011;10652;50.306;8.570;2022-10-17T07:13:38;4.38;;;2.35;;
20986;SDS011;10652;50.306;8.570;2022-10-17T07:17:40;3.88;;;2.40;;
20986;SDS011;10652;50.306;8.570;2022-10-17T07:21:43;4.88;;;2.17;;
20986;SDS011;10652;50.306;8.570;2022-10-17T07:25:46;5.72;;;2.30;;
20986;SDS011;10652;50.306;8.570;2022-10-17T07:29:49;4.65;;;2.00;;
20986;SDS011;10652;50.306;8.570;2022-10-17T07:33:58;3.22;;;2.13;;
20986;SDS011;10652;50.306;8.570;2022-10-17T07:38:01;5.43;;;2.00;;
20986;SDS011;10652;50.306;8.570;2022-10-17T07:42:03;4.72;;;2.22;;
20986;SDS011;10652;50.306;8.570;2022-10-17T07:46:06;4.88;;;2.25;;
20986;SDS011;10652;50.306;8.570;2022-10-17T07:50:09;5.32;;;2.40;;
20986;SDS011;10652;50.306;8.570;2022-10-17T07:54:11;4.57;;;2.45;;
20986;SDS011;10652;50.306;8.570;2022-10-17T07:58:13;6.35;;;2.28;;
20986;SDS011;10652;50.306;8.570;2022-10-17T08:02:23;5.70;;;2.35;;
20986;SDS011;10652;50.306;8.570;2022-10-17T08:06:26;3.83;;;2.40;;
20986;SDS011;10652;50.306;8.570;2022-10-17T08:10:28;5.85;;;2.35;;
20986;SDS011;10652;50.306;8.570;2022-10-17T08:14:30;4.15;;;2.50;;
20986;SDS011;10652;50.306;8.570;2022-10-17T08:18:32;7.00;;;2.63;;
20986;SDS011;10652;50.306;8.570;2022-10-17T08:22:39;6.22;;;2.88;;
20986;SDS011;10652;50.306;8.570;2022-10-17T08:26:41;3.60;;;2.20;;
20986;SDS011;10652;50.306;8.570;2022-10-17T08:30:46;4.50;;;2.00;;
20986;SDS011;10652;50.306;8.570;2022-10-17T08:34:49;5.75;;;2.42;;
20986;SDS011;10652;50.306;8.570;2022-10-17T08:38:51;4.25;;;2.42;;
20986;SDS011;10652;50.306;8.570;2022-10-17T08:47:10;6.43;;;2.50;;
20986;SDS011;10652;50.306;8.570;2022-10-17T08:51:18;4.53;;;2.25;;
20986;SDS011;10652;50.306;8.570;2022-10-17T08:55:28;4.10;;;2.30;;
20986;SDS011;10652;50.306;8.570;2022-10-17T08:59:34;4.03;;;2.22;;
20986;SDS011;10652;50.306;8.570;2022-10-17T09:12:40;4.30;;;1.90;;
20986;SDS011;10652;50.306;8.570;2022-10-17T09:21:11;4.47;;;2.00;;
20986;SDS011;10652;50.306;8.570;2022-10-17T09:25:20;9.02;;;2.80;;
20986;SDS011;10652;50.306;8.570;2022-10-17T09:29:24;8.73;;;2.25;;
20986;SDS011;10652;50.306;8.570;2022-10-17T09:33:40;5.15;;;2.10;;
20986;SDS011;10652;50.306;8.570;2022-10-17T09:38:00;5.40;;;1.90;;
20986;SDS011;10652;50.306;8.570;2022-10-17T09:42:02;4.70;;;1.83;;
20986;SDS011;10652;50.306;8.570;2022-10-17T09:46:08;2.95;;;1.70;;
20986;SDS011;10652;50.306;8.570;2022-10-17T09:50:26;4.18;;;1.80;;
20986;SDS011;10652;50.306;8.570;2022-10-17T09:54:34;4.40;;;1.70;;
20986;SDS011;10652;50.306;8.570;2022-10-17T09:58:43;1.95;;;1.60;;
20986;SDS011;10652;50.306;8.570;2022-10-17T10:02:46;4.65;;;1.90;;
20986;SDS011;10652;50.306;8.570;2022-10-17T10:07:02;2.03;;;1.65;;
20986;SDS011;10652;50.306;8.570;2022-10-17T10:19:37;4.22;;;1.67;;
20986;SDS011;10652;50.306;8.570;2022-10-17T10:23:43;3.70;;;1.70;;
20986;SDS011;10652;50.306;8.570;2022-10-17T10:27:47;4.72;;;1.80;;
20986;SDS011;10652;50.306;8.570;2022-10-17T10:31:49;2.65;;;1.80;;
20986;SDS011;10652;50.306;8.570;2022-10-17T10:35:54;5.05;;;1.90;;
20986;SDS011;10652;50.306;8.570;2022-10-17T10:40:06;4.65;;;1.80;;
20986;SDS011;10652;50.306;8.570;2022-10-17T10:44:20;5.93;;;1.90;;
20986;SDS011;10652;50.306;8.570;2022-10-17T10:48:29;3.78;;;1.95;;
20986;SDS011;10652;50.306;8.570;2022-10-17T10:52:46;6.35;;;1.83;;
20986;SDS011;10652;50.306;8.570;2022-10-17T10:56:58;7.15;;;2.20;;
20986;SDS011;10652;50.306;8.570;2022-10-17T11:01:05;4.88;;;1.70;;
20986;SDS011;10652;50.306;8.570;2022-10-17T11:05:36;2.95;;;1.70;;
20986;SDS011;10652;50.306;8.570;2022-10-17T11:10:06;5.07;;;2.00;;
20986;SDS011;10652;50.306;8.570;2022-10-17T11:14:31;4.18;;;1.60;;
20986;SDS011;10652;50.306;8.570;2022-10-17T11:18:43;3.38;;;1.60;;
20986;SDS011;10652;50.306;8.570;2022-10-17T11:22:54;5.03;;;1.58;;
20986;SDS011;10652;50.306;8.570;2022-10-17T11:27:03;2.08;;;1.50;;
20986;SDS011;10652;50.306;8.570;2022-10-17T11:31:11;4.00;;;1.92;;
20986;SDS011;10652;50.306;8.570;2022-10-17T11:39:39;5.78;;;1.48;;
20986;SDS011;10652;50.306;8.570;2022-10-17T11:43:51;4.40;;;1.60;;
20986;SDS011;10652;50.306;8.570;2022-10-17T11:56:50;4.38;;;1.88;;
20986;SDS011;10652;50.306;8.570;2022-10-17T12:09:57;3.80;;;1.40;;
20986;SDS011;10652;50.306;8.570;2022-10-17T12:22:49;4.63;;;1.27;;
20986;SDS011;10652;50.306;8.570;2022-10-17T12:26:53;7.40;;;1.70;;
20986;SDS011;10652;50.306;8.570;2022-10-17T12:30:59;10.98;;;1.77;;
20986;SDS011;10652;50.306;8.570;2022-10-17T12:35:03;5.57;;;1.42;;
20986;SDS011;10652;50.306;8.570;2022-10-17T12:51:17;2.80;;;1.60;;
20986;SDS011;10652;50.306;8.570;2022-10-17T12:55:38;5.35;;;1.65;;
20986;SDS011;10652;50.306;8.570;2022-10-17T12:59:42;4.90;;;1.75;;
20986;SDS011;10652;50.306;8.570;2022-10-17T13:03:45;5.30;;;1.92;;
20986;SDS011;10652;50.306;8.570;2022-10-17T13:07:49;2.85;;;1.70;;
20986;SDS011;10652;50.306;8.570;2022-10-17T13:11:53;4.82;;;1.75;;
20986;SDS011;10652;50.306;8.570;2022-10-17T13:15:58;3.80;;;1.60;;
20986;SDS011;10652;50.306;8.570;2022-10-17T13:20:00;5.20;;;1.70;;
20986;SDS011;10652;50.306;8.570;2022-10-17T13:24:18;9.30;;;2.67;;
20986;SDS011;10652;50.306;8.570;2022-10-17T13:28:21;4.97;;;2.17;;
20986;SDS011;10652;50.306;8.570;2022-10-17T13:32:26;1.70;;;1.60;;
20986;SDS011;10652;50.306;8.570;2022-10-17T13:36:35;4.38;;;1.70;;
20986;SDS011;10652;50.306;8.570;2022-10-17T13:40:41;7.53;;;1.65;;
20986;SDS011;10652;50.306;8.570;2022-10-17T13:44:50;4.75;;;1.70;;
20986;SDS011;10652;50.306;8.570;2022-10-17T13:48:53;3.13;;;1.80;;
20986;SDS011;10652;50.306;8.570;2022-10-17T13:53:15;4.38;;;1.80;;
20986;SDS011;10652;50.306;8.570;2022-10-17T13:57:27;5.30;;;1.70;;
20986;SDS011;10652;50.306;8.570;2022-10-17T14:01:32;3.38;;;2.00;;
20986;SDS011;10652;50.306;8.570;2022-10-17T14:05:34;4.88;;;1.70;;
20986;SDS011;10652;50.306;8.570;2022-10-17T14:09:36;3.95;;;1.95;;
20986;SDS011;10652;50.306;8.570;2022-10-17T14:13:38;4.60;;;1.75;;
20986;SDS011;10652;50.306;8.570;2022-10-17T14:17:42;3.60;;;1.50;;
20986;SDS011;10652;50.306;8.570;2022-10-17T14:21:51;4.03;;;1.63;;
20986;SDS011;10652;50.306;8.570;2022-10-17T14:26:04;6.25;;;1.80;;
20986;SDS011;10652;50.306;8.570;2022-10-17T14:34:45;4.23;;;1.50;;
20986;SDS011;10652;50.306;8.570;2022-10-17T14:42:58;2.28;;;1.63;;
20986;SDS011;10652;50.306;8.570;2022-10-17T14:47:04;4.47;;;1.48;;
20986;SDS011;10652;50.306;8.570;2022-10-17T14:51:28;4.18;;;2.00;;
20986;SDS011;10652;50.306;8.570;2022-10-17T14:55:56;4.28;;;1.50;;
20986;SDS011;10652;50.306;8.570;2022-10-17T15:00:00;13.00;;;2.20;;
20986;SDS011;10652;50.306;8.570;2022-10-17T15:04:02;5.68;;;1.95;;
20986;SDS011;10652;50.306;8.570;2022-10-17T15:08:05;3.95;;;2.15;;
20986;SDS011;10652;50.306;8.570;2022-10-17T15:12:15;6.65;;;1.92;;
20986;SDS011;10652;50.306;8.570;2022-10-17T15:16:21;5.38;;;1.65;;
20986;SDS011;10652;50.306;8.570;2022-10-17T15:20:25;8.23;;;2.45;;
20986;SDS011;10652;50.306;8.570;2022-10-17T15:24:30;7.53;;;2.70;;
20986;SDS011;10652;50.306;8.570;2022-10-17T15:28:32;5.13;;;2.20;;
20986;SDS011;10652;50.306;8.570;2022-10-17T15:32:34;5.28;;;2.05;;
20986;SDS011;10652;50.306;8.570;2022-10-17T15:36:39;7.20;;;1.60;;
20986;SDS011;10652;50.306;8.570;2022-10-17T15:40:42;4.20;;;1.75;;
20986;SDS011;10652;50.306;8.570;2022-10-17T15:44:44;6.63;;;1.77;;
20986;SDS011;10652;50.306;8.570;2022-10-17T15:48:50;4.32;;;2.17;;
20986;SDS011;10652;50.306;8.570;2022-10-17T15:52:54;5.28;;;2.00;;
20986;SDS011;10652;50.306;8.570;2022-10-17T15:56:56;6.20;;;2.08;;
20986;SDS011;10652;50.306;8.570;2022-10-17T16:00:58;7.65;;;2.05;;
20986;SDS011;10652;50.306;8.570;2022-10-17T16:05:00;5.85;;;1.98;;
20986;SDS011;10652;50.306;8.570;2022-10-17T16:09:02;9.32;;;2.50;;
20986;SDS011;10652;50.306;8.570;2022-10-17T16:13:04;8.00;;;2.50;;
20986;SDS011;10652;50.306;8.570;2022-10-17T16:17:24;4.80;;;2.15;;
20986;SDS011;10652;50.306;8.570;2022-10-17T16:21:27;7.00;;;2.33;;
20986;SDS011;10652;50.306;8.570;2022-10-17T16:25:33;4.90;;;2.60;;
20986;SDS011;10652;50.306;8.570;2022-10-17T16:29:35;6.75;;;2.33;;
20986;SDS011;10652;50.306;8.570;2022-10-17T16:33:37;5.10;;;1.90;;
20986;SDS011;10652;50.306;8.570;2022-10-17T16:37:39;5.55;;;1.73;;
20986;SDS011;10652;50.306;8.570;2022-10-17T16:41:41;5.80;;;1.85;;
20986;SDS011;10652;50.306;8.570;2022-10-17T16:45:43;5.28;;;2.10;;
20986;SDS011;10652;50.306;8.570;2022-10-17T16:49:45;5.00;;;2.40;;
20986;SDS011;10652;50.306;8.570;2022-10-17T16:53:48;5.57;;;2.30;;
20986;SDS011;10652;50.306;8.570;2022-10-17T16:57:53;14.85;;;4.70;;
20986;SDS011;10652;50.306;8.570;2022-10-17T17:01:55;7.68;;;4.00;;
20986;SDS011;10652;50.306;8.570;2022-10-17T17:05:57;10.05;;;3.97;;
20986;SDS011;10652;50.306;8.570;2022-10-17T17:09:59;11.60;;;3.30;;
20986;SDS011;10652;50.306;8.570;2022-10-17T17:14:02;5.15;;;3.10;;
20986;SDS011;10652;50.306;8.570;2022-10-17T17:18:05;5.55;;;3.00;;
20986;SDS011;10652;50.306;8.570;2022-10-17T17:22:07;11.40;;;3.55;;
20986;SDS011;10652;50.306;8.570;2022-10-17T17:26:16;6.97;;;2.72;;
20986;SDS011;10652;50.306;8.570;2022-10-17T17:30:21;6.75;;;2.60;;
20986;SDS011;10652;50.306;8.570;2022-10-17T17:34:23;6.55;;;3.20;;
20986;SDS011;10652;50.306;8.570;2022-10-17T17:38:27;8.55;;;3.70;;
20986;SDS011;10652;50.306;8.570;2022-10-17T17:42:30;8.93;;;3.47;;
20986;SDS011;10652;50.306;8.570;2022-10-17T17:46:32;7.35;;;4.60;;
20986;SDS011;10652;50.306;8.570;2022-10-17T17:50:38;8.20;;;3.10;;
20986;SDS011;10652;50.306;8.570;2022-10-17T17:54:41;8.85;;;3.90;;
20986;SDS011;10652;50.306;8.570;2022-10-17T17:58:43;5.85;;;3.63;;
20986;SDS011;10652;50.306;8.570;2022-10-17T18:02:46;11.60;;;3.22;;
20986;SDS011;10652;50.306;8.570;2022-10-17T18:06:48;7.93;;;3.28;;
20986;SDS011;10652;50.306;8.570;2022-10-17T18:10:50;9.65;;;3.38;;
20986;SDS011;10652;50.306;8.570;2022-10-17T18:14:57;9.30;;;3.90;;
20986;SDS011;10652;50.306;8.570;2022-10-17T18:19:00;5.85;;;3.17;;
20986;SDS011;10652;50.306;8.570;2022-10-17T18:23:08;6.50;;;3.17;;
20986;SDS011;10652;50.306;8.570;2022-10-17T18:27:10;9.65;;;3.40;;
20986;SDS011;10652;50.306;8.570;2022-10-17T18:31:18;9.52;;;5.95;;
20986;SDS011;10652;50.306;8.570;2022-10-17T18:35:25;9.20;;;4.50;;
20986;SDS011;10652;50.306;8.570;2022-10-17T18:39:27;9.38;;;4.43;;
20986;SDS011;10652;50.306;8.570;2022-10-17T18:43:30;11.38;;;3.50;;
20986;SDS011;10652;50.306;8.570;2022-10-17T18:47:33;7.18;;;3.13;;
20986;SDS011;10652;50.306;8.570;2022-10-17T18:51:35;7.75;;;2.97;;
20986;SDS011;10652;50.306;8.570;2022-10-17T18:55:38;10.02;;;3.80;;
20986;SDS011;10652;50.306;8.570;2022-10-17T18:59:40;8.65;;;3.20;;
20986;SDS011;10652;50.306;8.570;2022-10-17T19:03:43;5.63;;;3.13;;
20986;SDS011;10652;50.306;8.570;2022-10-17T19:07:46;9.50;;;5.22;;
20986;SDS011;10652;50.306;8.570;2022-10-17T19:11:48;8.63;;;5.22;;
20986;SDS011;10652;50.306;8.570;2022-10-17T19:15:50;9.15;;;4.28;;
20986;SDS011;10652;50.306;8.570;2022-10-17T19:19:52;9.52;;;6.88;;
20986;SDS011;10652;50.306;8.570;2022-10-17T19:24:00;9.82;;;6.53;;
20986;SDS011;10652;50.306;8.570;2022-10-17T19:28:04;6.78;;;5.15;;
20986;SDS011;10652;50.306;8.570;2022-10-17T19:32:06;7.30;;;4.63;;
20986;SDS011;10652;50.306;8.570;2022-10-17T19:36:19;8.52;;;4.47;;
20986;SDS011;10652;50.306;8.570;2022-10-17T19:40:22;8.10;;;4.65;;
20986;SDS011;10652;50.306;8.570;2022-10-17T19:44:24;9.75;;;4.82;;
20986;SDS011;10652;50.306;8.570;2022-10-17T19:48:29;8.80;;;4.30;;
20986;SDS011;10652;50.306;8.570;2022-10-17T19:52:33;8.73;;;4.07;;
20986;SDS011;10652;50.306;8.570;2022-10-17T19:56:35;6.78;;;3.53;;
20986;SDS011;10652;50.306;8.570;2022-10-17T20:00:47;8.48;;;3.25;;
20986;SDS011;10652;50.306;8.570;2022-10-17T20:04:51;8.05;;;3.80;;
20986;SDS011;10652;50.306;8.570;2022-10-17T20:09:13;9.90;;;3.50;;
20986;SDS011;10652;50.306;8.570;2022-10-17T20:13:18;8.43;;;3.65;;
20986;SDS011;10652;50.306;8.570;2022-10-17T20:17:20;9.52;;;3.65;;
20986;SDS011;10652;50.306;8.570;2022-10-17T20:21:26;8.32;;;3.42;;
20986;SDS011;10652;50.306;8.570;2022-10-17T20:25:32;8.32;;;3.60;;
20986;SDS011;10652;50.306;8.570;2022-10-17T20:29:35;9.27;;;3.97;;
20986;SDS011;10652;50.306;8.570;2022-10-17T20:33:37;9.98;;;3.60;;
20986;SDS011;10652;50.306;8.570;2022-10-17T20:37:39;13.13;;;4.28;;
20986;SDS011;10652;50.306;8.570;2022-10-17T20:41:43;7.32;;;3.67;;
20986;SDS011;10652;50.306;8.570;2022-10-17T20:45:46;9.18;;;3.75;;
20986;SDS011;10652;50.306;8.570;2022-10-17T20:49:52;6.67;;;3.33;;
20986;SDS011;10652;50.306;8.570;2022-10-17T20:53:54;8.43;;;3.22;;
20986;SDS011;10652;50.306;8.570;2022-10-17T20:57:57;9.68;;;3.47;;
20986;SDS011;10652;50.306;8.570;2022-10-17T21:01:59;9.80;;;3.80;;
20986;SDS011;10652;50.306;8.570;2022-10-17T21:06:02;10.93;;;3.60;;
20986;SDS011;10652;50.306;8.570;2022-10-17T21:10:04;4.65;;;3.47;;
20986;SDS011;10652;50.306;8.570;2022-10-17T21:14:27;5.93;;;3.53;;
20986;SDS011;10652;50.306;8.570;2022-10-17T21:18:29;8.35;;;3.88;;
20986;SDS011;10652;50.306;8.570;2022-10-17T21:22:34;10.13;;;4.00;;
20986;SDS011;10652;50.306;8.570;2022-10-17T21:26:36;9.20;;;4.28;;
20986;SDS011;10652;50.306;8.570;2022-10-17T21:30:40;9.32;;;3.97;;
20986;SDS011;10652;50.306;8.570;2022-10-17T21:34:42;8.68;;;3.60;;
20986;SDS011;10652;50.306;8.570;2022-10-17T21:38:44;9.57;;;3.53;;
20986;SDS011;10652;50.306;8.570;2022-10-17T21:42:47;7.05;;;3.30;;
20986;SDS011;10652;50.306;8.570;2022-10-17T21:46:50;10.75;;;3.88;;
20986;SDS011;10652;50.306;8.570;2022-10-17T21:50:55;9.02;;;3.70;;
20986;SDS011;10652;50.306;8.570;2022-10-17T21:55:01;5.03;;;3.15;;
20986;SDS011;10652;50.306;8.570;2022-10-17T21:59:03;6.38;;;3.47;;
20986;SDS011;10652;50.306;8.570;2022-10-17T22:03:05;8.82;;;3.78;;
20986;SDS011;10652;50.306;8.570;2022-10-17T22:07:09;8.43;;;4.00;;
20986;SDS011;10652;50.306;8.570;2022-10-17T22:11:12;10.30;;;3.50;;
20986;SDS011;10652;50.306;8.570;2022-10-17T22:15:16;6.93;;;3.72;;
20986;SDS011;10652;50.306;8.570;2022-10-17T22:19:20;8.02;;;3.58;;
20986;SDS011;10652;50.306;8.570;2022-10-17T22:23:25;8.97;;;3.77;;
20986;SDS011;10652;50.306;8.570;2022-10-17T22:27:27;10.55;;;4.30;;
20986;SDS011;10652;50.306;8.570;2022-10-17T22:31:30;6.47;;;3.45;;
20986;SDS011;10652;50.306;8.570;2022-10-17T22:35:32;8.00;;;3.80;;
20986;SDS011;10652;50.306;8.570;2022-10-17T22:39:34;10.27;;;3.33;;
20986;SDS011;10652;50.306;8.570;2022-10-17T22:43:36;6.47;;;3.40;;
20986;SDS011;10652;50.306;8.570;2022-10-17T22:47:38;6.97;;;3.30;;
20986;SDS011;10652;50.306;8.570;2022-10-17T22:51:40;5.10;;;2.85;;
20986;SDS011;10652;50.306;8.570;2022-10-17T22:55:48;7.82;;;3.33;;
20986;SDS011;10652;50.306;8.570;2022-10-17T22:59:54;13.70;;;4.03;;
20986;SDS011;10652;50.306;8.570;2022-10-17T23:03:56;12.48;;;3.72;;
20986;SDS011;10652;50.306;8.570;2022-10-17T23:07:58;8.70;;;3.00;;
20986;SDS011;10652;50.306;8.570;2022-10-17T23:12:00;5.50;;;3.03;;
20986;SDS011;10652;50.306;8.570;2022-10-17T23:16:02;5.28;;;2.92;;
20986;SDS011;10652;50.306;8.570;2022-10-17T23:20:04;8.57;;;3.13;;
20986;SDS011;10652;50.306;8.570;2022-10-17T23:24:07;7.63;;;2.90;;
20986;SDS011;10652;50.306;8.570;2022-10-17T23:28:09;5.85;;;2.45;;
20986;SDS011;10652;50.306;8.570;2022-10-17T23:32:11;10.18;;;2.95;;
20986;SDS011;10652;50.306;8.570;2022-10-17T23:36:14;8.65;;;3.50;;
20986;SDS011;10652;50.306;8.570;2022-10-17T23:40:17;6.10;;;3.10;;
20986;SDS011;10652;50.306;8.570;2022-10-17T23:44:19;6.50;;;3.15;;
20986;SDS011;10652;50.306;8.570;2022-10-17T23:48:23;7.57;;;2.97;;
20986;SDS011;10652;50.306;8.570;2022-10-17T23:52:25;10.13;;;3.08;;
20986;SDS011;10652;50.306;8.570;2022-10-17T23:56:27;7.97;;;2.95;;
